createdAt,value
2018-02-05T00:02:01.622Z,22.40
2018-02-05T00:04:29.185Z,25.17
2018-02-05T00:06:56.760Z,23.52
2018-02-05T00:09:24.369Z,25.55
2018-02-05T00:11:51.946Z,23.25
2018-02-05T00:14:19.526Z,26.23
2018-02-05T00:16:47.084Z,24.87
2018-02-05T00:19:14.689Z,23.25
2018-02-05T00:21:42.238Z,24.12
2018-02-05T00:24:09.834Z,25.37
2018-02-05T00:26:37.400Z,24.77
2018-02-05T00:29:04.982Z,23.23
2018-02-05T00:31:32.574Z,25.52
2018-02-05T00:34:00.270Z,23.85
2018-02-05T00:36:27.868Z,22.42
2018-02-05T00:38:55.426Z,24.77
2018-02-05T00:41:23.027Z,23.85
2018-02-05T00:43:50.583Z,22.65
2018-02-05T00:46:18.183Z,24.55
2018-02-05T00:48:45.762Z,23.77
2018-02-05T00:51:13.358Z,25.52
2018-02-05T00:56:13.950Z,26.40
2018-02-05T00:58:41.554Z,24.92
2018-02-05T01:01:09.152Z,24.50
2018-02-05T01:03:36.734Z,23.15
2018-02-05T01:06:05.219Z,27.58
2018-02-05T01:11:05.970Z,26.65
2018-02-05T01:13:33.598Z,26.08
2018-02-05T01:16:01.162Z,23.33
2018-02-05T01:18:28.710Z,24.08
2018-02-05T01:20:56.306Z,25.42
2018-02-05T01:23:23.858Z,25.75
2018-02-05T01:25:51.502Z,27.08
2018-02-05T01:28:19.185Z,26.05
2018-02-05T01:30:46.813Z,27.27
2018-02-05T01:33:14.435Z,26.85
2018-02-05T01:35:42.007Z,25.75
2018-02-05T01:38:09.634Z,25.17
2018-02-05T01:40:37.962Z,26.02
2018-02-05T01:43:05.558Z,26.45
2018-02-05T01:45:33.109Z,26.52
2018-02-05T01:48:00.806Z,25.55
2018-02-05T01:50:28.365Z,27.42
2018-02-05T01:52:56.062Z,27.35
2018-02-05T01:55:23.617Z,28.20
2018-02-05T01:57:51.174Z,29.50
2018-02-05T02:00:18.873Z,26.75
2018-02-05T02:02:46.438Z,25.80
2018-02-05T02:05:14.788Z,28.05
2018-02-05T02:07:42.350Z,29.73
2018-02-05T02:10:09.931Z,27.17
2018-02-05T02:12:37.577Z,27.65
2018-02-05T02:15:05.180Z,27.80
2018-02-05T02:17:32.758Z,26.42
2018-02-05T02:20:00.318Z,26.30
2018-02-05T02:22:27.994Z,27.55
2018-02-05T02:24:55.578Z,27.48
2018-02-05T02:27:23.139Z,27.58
2018-02-05T02:29:52.446Z,27.10
2018-02-05T02:32:20.022Z,27.60
2018-02-05T02:34:48.378Z,25.88
2018-02-05T02:37:16.010Z,26.48
2018-02-05T02:39:43.603Z,25.77
2018-02-05T02:42:11.254Z,26.08
2018-02-05T02:44:38.860Z,25.88
2018-02-05T02:47:06.420Z,26.62
2018-02-05T02:49:33.974Z,30.58
2018-02-05T02:52:01.570Z,26.83
2018-02-05T02:54:29.135Z,30.20
2018-02-05T02:56:56.724Z,29.55
2018-02-05T02:59:25.054Z,26.50
2018-02-05T03:01:52.634Z,26.37
2018-02-05T03:04:20.194Z,28.92
2018-02-05T03:06:48.558Z,27.77
2018-02-05T03:09:16.131Z,29.83
2018-02-05T03:11:43.746Z,27.85
2018-02-05T03:14:11.318Z,25.15
2018-02-05T03:16:38.911Z,27.10
2018-02-05T03:19:06.494Z,30.20
2018-02-05T03:21:34.846Z,27.62
2018-02-05T03:24:02.526Z,26.08
2018-02-05T03:26:30.845Z,26.75
2018-02-05T03:28:58.446Z,26.40
2018-02-05T03:31:26.000Z,26.35
2018-02-05T03:33:53.586Z,28.25
2018-02-05T03:36:21.150Z,30.17
2018-02-05T03:38:48.751Z,26.15
2018-02-05T03:41:16.307Z,26.67
2018-02-05T03:43:43.889Z,25.83
2018-02-05T03:46:11.611Z,25.75
2018-02-05T03:48:39.385Z,28.75
2018-02-05T03:51:06.976Z,26.42
2018-02-05T03:53:34.547Z,26.08
2018-02-05T03:56:02.153Z,28.00
2018-02-05T03:58:29.718Z,28.45
2018-02-05T04:00:57.272Z,27.90
2018-02-05T04:03:24.874Z,27.80
2018-02-05T04:05:52.518Z,26.90
2018-02-05T04:08:20.118Z,25.90
2018-02-05T04:10:48.454Z,30.12
2018-02-05T04:13:16.047Z,27.17
2018-02-05T04:15:44.439Z,24.98
2018-02-05T04:18:12.049Z,25.62
2018-02-05T04:20:39.690Z,26.60
2018-02-05T04:23:07.254Z,26.77
2018-02-05T04:25:34.922Z,24.87
2018-02-05T04:28:02.493Z,26.77
2018-02-05T04:30:30.087Z,24.40
2018-02-05T04:32:58.486Z,23.87
2018-02-05T04:35:26.054Z,25.08
2018-02-05T04:37:53.621Z,25.20
2018-02-05T04:40:21.286Z,27.80
2018-02-05T04:42:48.837Z,24.98
2018-02-05T04:45:16.402Z,25.60
2018-02-05T04:47:44.003Z,23.02
2018-02-05T04:50:12.331Z,25.02
2018-02-05T04:52:40.018Z,23.58
2018-02-05T04:55:07.662Z,26.37
2018-02-05T04:57:35.248Z,22.92
2018-02-05T05:00:02.806Z,25.37
2018-02-05T05:02:30.458Z,23.73
2018-02-05T05:04:58.130Z,25.33
2018-02-05T05:07:25.691Z,23.87
2018-02-05T05:09:54.043Z,23.55
2018-02-05T05:12:21.726Z,25.25
2018-02-05T05:14:49.361Z,25.85
2018-02-05T05:17:16.928Z,23.65
2018-02-05T05:19:44.515Z,25.58
2018-02-05T05:22:13.010Z,26.12
2018-02-05T05:24:41.347Z,24.50
2018-02-05T05:27:08.935Z,25.73
2018-02-05T05:29:37.404Z,26.48
2018-02-05T05:32:04.998Z,25.23
2018-02-05T05:34:32.563Z,24.30
2018-02-05T05:37:00.173Z,25.10
2018-02-05T05:39:29.230Z,26.23
2018-02-05T05:41:56.825Z,23.95
2018-02-05T05:44:24.393Z,25.25
2018-02-05T05:46:52.755Z,26.30
2018-02-05T05:49:20.454Z,26.65
2018-02-05T05:51:48.017Z,25.75
2018-02-05T05:54:15.671Z,24.60
2018-02-05T05:56:43.249Z,24.45
2018-02-05T05:59:10.831Z,26.80
2018-02-05T06:01:38.397Z,25.70
2018-02-05T06:04:05.958Z,22.90
2018-02-05T06:06:33.545Z,24.48
2018-02-05T06:09:02.010Z,26.20
2018-02-05T06:11:29.599Z,26.00
2018-02-05T06:13:58.045Z,26.95
2018-02-05T06:16:25.662Z,26.02
2018-02-05T06:18:53.273Z,27.17
2018-02-05T06:21:20.853Z,25.50
2018-02-05T06:23:49.345Z,24.12
2018-02-05T06:26:16.983Z,25.17
2018-02-05T06:28:45.318Z,26.12
2018-02-05T06:31:12.915Z,22.83
2018-02-05T06:33:41.262Z,25.90
2018-02-05T06:36:08.829Z,24.27
2018-02-05T06:38:36.463Z,24.75
2018-02-05T06:41:04.034Z,25.12
2018-02-05T06:43:31.626Z,22.95
2018-02-05T06:45:59.974Z,24.73
2018-02-05T06:48:27.533Z,25.08
2018-02-05T06:51:07.017Z,24.15
2018-02-05T06:53:46.383Z,26.67
2018-02-05T06:56:23.886Z,26.58
2018-02-05T06:58:51.458Z,31.10
2018-02-05T07:01:19.055Z,26.20
2018-02-05T07:03:47.413Z,25.35
2018-02-05T07:06:14.998Z,27.42
2018-02-05T07:08:42.557Z,24.77
2018-02-05T07:11:10.272Z,26.23
2018-02-05T07:13:37.850Z,27.10
2018-02-05T07:16:05.414Z,26.42
2018-02-05T07:18:33.890Z,25.60
2018-02-05T07:21:02.243Z,26.75
2018-02-05T07:23:29.829Z,27.00
2018-02-05T07:25:58.153Z,25.95
2018-02-05T07:28:25.749Z,26.85
2018-02-05T07:30:53.298Z,24.65
2018-02-05T07:33:20.853Z,25.83
2018-02-05T07:35:48.445Z,25.05
2018-02-05T07:38:16.798Z,27.40
2018-02-05T07:40:44.573Z,25.55
2018-02-05T07:43:13.630Z,25.55
2018-02-05T07:45:41.297Z,23.38
2018-02-05T07:48:08.870Z,26.87
2018-02-05T07:50:36.597Z,24.05
2018-02-05T07:53:04.231Z,22.37
2018-02-05T07:55:32.590Z,25.98
2018-02-05T07:58:00.922Z,25.52
2018-02-05T08:00:28.479Z,27.17
2018-02-05T08:02:56.069Z,24.75
2018-02-05T08:05:23.675Z,23.00
2018-02-05T08:07:51.271Z,23.15
2018-02-05T08:10:18.885Z,24.37
2018-02-05T08:12:46.466Z,23.62
2018-02-05T08:15:14.051Z,25.85
2018-02-05T08:17:41.645Z,26.52
2018-02-05T08:20:09.970Z,25.60
2018-02-05T08:22:37.669Z,21.85
2018-02-05T08:25:05.334Z,26.42
2018-02-05T08:27:32.906Z,25.65
2018-02-05T08:30:01.250Z,24.17
2018-02-05T08:32:29.574Z,23.35
2018-02-05T08:34:57.166Z,25.35
2018-02-05T08:37:24.730Z,25.27
2018-02-05T08:39:52.326Z,24.35
2018-02-05T08:42:19.888Z,23.55
2018-02-05T08:44:48.245Z,25.60
2018-02-05T08:47:15.822Z,23.73
2018-02-05T08:49:44.203Z,22.48
2018-02-05T08:52:12.642Z,22.58
2018-02-05T08:54:40.393Z,24.58
2018-02-05T08:57:07.981Z,21.90
2018-02-05T08:59:35.591Z,22.02
2018-02-05T09:02:03.366Z,22.50
2018-02-05T09:04:30.918Z,22.52
2018-02-05T09:06:58.525Z,23.83
2018-02-05T09:09:26.081Z,21.40
2018-02-05T09:11:53.675Z,20.37
2018-02-05T09:14:21.246Z,18.70
2018-02-05T09:16:48.854Z,20.27
2018-02-05T09:19:16.438Z,19.50
2018-02-05T09:21:44.965Z,18.42
2018-02-05T09:24:12.562Z,17.60
2018-02-05T09:26:40.121Z,19.50
2018-02-05T09:29:07.710Z,18.60
2018-02-05T09:31:35.270Z,18.77
2018-02-05T09:34:02.887Z,17.42
2018-02-05T09:36:30.448Z,18.55
2018-02-05T09:38:58.042Z,18.77
2018-02-05T09:41:25.710Z,17.75
2018-02-05T09:43:53.345Z,17.60
2018-02-05T09:46:21.786Z,17.50
2018-02-05T09:48:49.354Z,18.62
2018-02-05T09:51:16.967Z,16.55
2018-02-05T09:53:44.530Z,14.07
2018-02-05T09:56:12.148Z,15.10
2018-02-05T09:58:41.427Z,15.25
2018-02-05T10:01:09.114Z,16.12
2018-02-05T10:03:37.491Z,13.90
2018-02-05T10:06:05.050Z,16.10
2018-02-05T10:08:33.578Z,14.50
2018-02-05T10:11:01.231Z,13.70
2018-02-05T10:13:28.881Z,15.38
2018-02-05T10:15:56.483Z,15.90
2018-02-05T10:18:24.094Z,13.45
2018-02-05T10:20:51.700Z,13.52
2018-02-05T10:23:19.269Z,14.05
2018-02-05T10:25:46.862Z,14.43
2018-02-05T10:28:15.221Z,14.77
2018-02-05T10:30:42.809Z,13.07
2018-02-05T10:33:10.494Z,13.37
2018-02-05T10:35:38.097Z,14.13
2018-02-05T10:38:06.493Z,12.17
2018-02-05T10:40:34.852Z,25.33
2018-02-05T10:43:02.459Z,13.00
2018-02-05T10:45:30.088Z,12.17
2018-02-05T10:47:58.622Z,12.37
2018-02-05T10:50:26.194Z,11.90
2018-02-05T10:52:53.834Z,13.67
2018-02-05T10:55:21.411Z,12.45
2018-02-05T10:57:49.850Z,11.80
2018-02-05T11:00:17.490Z,13.27
2018-02-05T11:02:45.842Z,12.50
2018-02-05T11:05:13.451Z,12.90
2018-02-05T11:07:41.014Z,13.55
2018-02-05T11:10:08.615Z,12.73
2018-02-05T11:12:36.354Z,12.82
2018-02-05T11:15:03.943Z,12.40
2018-02-05T11:17:31.510Z,11.38
2018-02-05T11:19:59.899Z,11.60
2018-02-05T11:22:28.258Z,10.85
2018-02-05T11:24:55.826Z,10.60
2018-02-05T11:27:24.306Z,11.38
2018-02-05T11:29:52.655Z,9.85
2018-02-05T11:32:20.242Z,11.82
2018-02-05T11:34:48.578Z,10.55
2018-02-05T11:37:16.163Z,10.43
2018-02-05T11:39:43.737Z,9.93
2018-02-05T11:42:12.105Z,11.00
2018-02-05T11:44:39.663Z,10.07
2018-02-05T11:47:07.228Z,10.27
2018-02-05T11:49:34.814Z,11.13
2018-02-05T11:52:02.367Z,9.93
2018-02-05T11:54:29.954Z,10.50
2018-02-05T11:56:57.538Z,11.07
2018-02-05T11:59:25.121Z,10.27
2018-02-05T12:01:53.602Z,9.43
2018-02-05T12:04:21.194Z,11.23
2018-02-05T12:06:48.756Z,10.07
2018-02-05T12:09:16.317Z,10.07
2018-02-05T12:11:43.910Z,10.90
2018-02-05T12:14:11.463Z,10.90
2018-02-05T12:16:39.097Z,9.95
2018-02-05T12:19:06.667Z,8.27
2018-02-05T12:21:34.262Z,9.70
2018-02-05T12:24:01.818Z,10.50
2018-02-05T12:26:29.378Z,10.70
2018-02-05T12:28:56.990Z,9.87
2018-02-05T12:31:24.550Z,9.97
2018-02-05T12:33:52.139Z,9.10
2018-02-05T12:36:19.713Z,8.53
2018-02-05T12:38:47.306Z,9.63
2018-02-05T12:41:14.902Z,9.07
2018-02-05T12:43:42.501Z,11.37
2018-02-05T12:46:10.202Z,9.70
2018-02-05T12:48:37.794Z,9.00
2018-02-05T12:51:05.372Z,8.47
2018-02-05T12:53:32.961Z,10.53
2018-02-05T12:56:00.514Z,9.63
2018-02-05T12:58:28.082Z,8.80
2018-02-05T13:01:01.226Z,9.17
2018-02-05T13:03:31.623Z,8.40
2018-02-05T13:06:18.871Z,8.67
2018-02-05T13:08:46.496Z,10.07
2018-02-05T13:11:14.130Z,9.70
2018-02-05T13:13:41.692Z,8.63
2018-02-05T13:16:09.464Z,9.03
2018-02-05T13:18:37.027Z,9.73
2018-02-05T13:21:04.609Z,9.37
2018-02-05T13:23:32.167Z,8.37
2018-02-05T13:25:59.834Z,8.40
2018-02-05T13:28:27.430Z,7.93
2018-02-05T13:30:55.767Z,8.20
2018-02-05T13:33:23.350Z,8.10
2018-02-05T13:35:50.911Z,8.00
2018-02-05T13:38:18.506Z,7.03
2018-02-05T13:40:46.142Z,7.20
2018-02-05T13:43:14.513Z,7.30
2018-02-05T13:45:42.859Z,6.53
2018-02-05T13:48:10.423Z,6.93
2018-02-05T13:50:38.012Z,6.80
2018-02-05T13:53:06.334Z,7.03
2018-02-05T13:55:34.042Z,6.90
2018-02-05T13:58:01.639Z,6.37
2018-02-05T14:00:29.218Z,7.23
2018-02-05T14:02:56.925Z,6.80
2018-02-05T14:05:24.722Z,7.00
2018-02-05T14:07:52.394Z,8.07
2018-02-05T14:10:19.941Z,7.10
2018-02-05T14:12:47.618Z,6.90
2018-02-05T14:15:15.177Z,7.80
2018-02-05T14:17:42.738Z,7.30
2018-02-05T14:20:10.318Z,9.57
2018-02-05T14:22:37.874Z,6.10
2018-02-05T14:25:05.461Z,7.00
2018-02-05T14:27:33.026Z,9.20
2018-02-05T14:30:01.391Z,9.50
2018-02-05T14:32:28.972Z,9.50
2018-02-05T14:34:57.494Z,14.07
2018-02-05T14:37:25.137Z,9.20
2018-02-05T14:39:52.710Z,8.30
2018-02-05T14:42:20.369Z,6.57
2018-02-05T14:44:48.686Z,7.50
2018-02-05T14:47:17.082Z,7.63
2018-02-05T14:49:45.398Z,6.60
2018-02-05T14:52:12.992Z,7.03
2018-02-05T14:54:40.562Z,7.93
2018-02-05T14:57:08.222Z,7.60
2018-02-05T14:59:35.809Z,7.37
2018-02-05T15:02:03.470Z,8.53
2018-02-05T15:04:31.254Z,8.47
2018-02-05T15:06:58.867Z,8.00
2018-02-05T15:09:27.307Z,7.77
2018-02-05T15:11:54.969Z,6.12
2018-02-05T15:14:22.566Z,7.30
2018-02-05T15:16:50.939Z,7.85
2018-02-05T15:19:19.274Z,7.65
2018-02-05T15:21:46.867Z,6.97
2018-02-05T15:24:14.434Z,7.60
2018-02-05T15:26:42.794Z,8.20
2018-02-05T15:29:11.127Z,6.40
2018-02-05T15:31:38.710Z,8.23
2018-02-05T15:34:06.307Z,8.00
2018-02-05T15:36:33.882Z,8.05
2018-02-05T15:39:02.370Z,7.93
2018-02-05T15:41:29.942Z,7.60
2018-02-05T15:43:57.533Z,7.20
2018-02-05T15:46:25.154Z,6.37
2018-02-05T15:48:52.769Z,7.93
2018-02-05T15:51:20.326Z,8.43
2018-02-05T15:53:47.898Z,8.38
2018-02-05T15:56:16.291Z,7.25
2018-02-05T15:58:44.695Z,6.80
2018-02-05T16:01:12.369Z,7.57
2018-02-05T16:03:39.975Z,7.60
2018-02-05T16:06:08.378Z,7.55
2018-02-05T16:08:35.960Z,7.95
2018-02-05T16:11:03.526Z,7.60
2018-02-05T16:13:31.168Z,8.02
2018-02-05T16:15:58.769Z,6.95
2018-02-05T16:18:26.391Z,7.37
2018-02-05T16:20:54.078Z,7.30
2018-02-05T16:23:21.642Z,8.25
2018-02-05T16:25:49.233Z,7.62
2018-02-05T16:28:16.807Z,8.70
2018-02-05T16:30:44.394Z,8.18
2018-02-05T16:33:11.998Z,8.57
2018-02-05T16:35:39.598Z,8.10
2018-02-05T16:38:07.214Z,7.70
2018-02-05T16:40:34.826Z,7.90
2018-02-05T16:43:02.386Z,8.45
2018-02-05T16:45:29.962Z,8.55
2018-02-05T16:47:57.635Z,7.45
2018-02-05T16:50:25.178Z,8.77
2018-02-05T16:52:52.797Z,8.95
2018-02-05T16:55:21.130Z,8.57
2018-02-05T16:57:48.718Z,8.43
2018-02-05T17:00:17.083Z,8.55
2018-02-05T17:02:44.683Z,8.50
2018-02-05T17:05:12.242Z,9.25
2018-02-05T17:07:39.850Z,8.60
2018-02-05T17:10:07.483Z,8.40
2018-02-05T17:12:35.162Z,8.18
2018-02-05T17:15:02.752Z,9.35
2018-02-05T17:17:31.102Z,8.50
2018-02-05T17:19:58.707Z,8.80
2018-02-05T17:22:26.270Z,7.57
2018-02-05T17:24:53.887Z,9.27
2018-02-05T17:27:22.314Z,9.98
2018-02-05T17:29:49.969Z,10.10
2018-02-05T17:32:17.563Z,9.93
2018-02-05T17:34:45.136Z,10.13
2018-02-05T17:37:12.732Z,11.27
2018-02-05T17:39:41.196Z,9.98
2018-02-05T17:42:08.861Z,10.73
2018-02-05T17:44:36.426Z,10.90
2018-02-05T17:47:04.947Z,10.68
2018-02-05T17:49:32.517Z,10.57
2018-02-05T17:52:01.981Z,10.90
2018-02-05T17:54:29.630Z,11.05
2018-02-05T17:56:58.182Z,10.15
2018-02-05T17:59:27.314Z,9.73
2018-02-05T18:01:54.931Z,10.40
2018-02-05T18:04:22.507Z,10.73
2018-02-05T18:06:50.876Z,11.05
2018-02-05T18:09:18.449Z,10.68
2018-02-05T18:11:46.064Z,11.35
2018-02-05T18:14:13.624Z,11.63
2018-02-05T18:16:41.229Z,13.27
2018-02-05T18:19:09.667Z,11.18
2018-02-05T18:21:37.229Z,9.63
2018-02-05T18:24:04.863Z,11.18
2018-02-05T18:26:32.439Z,12.52
2018-02-05T18:29:00.036Z,10.95
2018-02-05T18:31:27.611Z,11.38
2018-02-05T18:33:55.970Z,12.43
2018-02-05T18:36:23.538Z,11.70
2018-02-05T18:38:51.151Z,11.82
2018-02-05T18:41:18.723Z,12.85
2018-02-05T18:43:46.298Z,12.50
2018-02-05T18:46:14.032Z,12.57
2018-02-05T18:48:41.623Z,13.25
2018-02-05T18:51:09.227Z,12.32
2018-02-05T18:53:36.872Z,10.80
2018-02-05T18:56:05.259Z,12.90
2018-02-05T18:58:32.835Z,12.35
2018-02-05T19:01:00.398Z,12.55
2018-02-05T19:03:28.028Z,12.02
2018-02-05T19:05:56.363Z,12.30
2018-02-05T19:08:23.962Z,11.25
2018-02-05T19:10:52.286Z,13.13
2018-02-05T19:13:19.974Z,11.45
2018-02-05T19:15:47.661Z,11.98
2018-02-05T19:18:15.996Z,11.70
2018-02-05T19:20:43.716Z,12.30
2018-02-05T19:23:11.331Z,11.48
2018-02-05T19:25:38.927Z,12.57
2018-02-05T19:28:06.590Z,11.55
2018-02-05T19:30:34.202Z,12.68
2018-02-05T19:33:01.802Z,13.10
2018-02-05T19:35:29.371Z,12.30
2018-02-05T19:37:56.966Z,12.23
2018-02-05T19:40:24.562Z,13.70
2018-02-05T19:42:52.929Z,12.50
2018-02-05T19:45:20.528Z,13.23
2018-02-05T19:47:48.126Z,13.80
2018-02-05T19:50:15.697Z,12.73
2018-02-05T19:52:43.275Z,13.62
2018-02-05T19:55:11.655Z,13.45
2018-02-05T19:57:40.019Z,13.73
2018-02-05T20:00:07.637Z,13.98
2018-02-05T20:02:35.239Z,14.70
2018-02-05T20:05:02.922Z,14.73
2018-02-05T20:07:31.391Z,13.68
2018-02-05T20:09:59.759Z,13.75
2018-02-05T20:12:27.531Z,13.70
2018-02-05T20:14:55.918Z,13.62
2018-02-05T20:17:24.272Z,14.05
2018-02-05T20:19:51.835Z,13.52
2018-02-05T20:22:19.471Z,13.82
2018-02-05T20:24:47.068Z,12.60
2018-02-05T20:27:15.492Z,14.73
2018-02-05T20:29:43.119Z,13.48
2018-02-05T20:32:11.521Z,12.18
2018-02-05T20:34:39.210Z,14.48
2018-02-05T20:37:06.775Z,13.52
2018-02-05T20:39:34.359Z,14.45
2018-02-05T20:42:02.710Z,13.35
2018-02-05T20:44:30.319Z,14.07
2018-02-05T20:46:57.905Z,12.45
2018-02-05T20:49:25.553Z,14.18
2018-02-05T20:51:53.132Z,11.10
2018-02-05T20:54:20.706Z,11.82
2018-02-05T20:56:48.316Z,13.05
2018-02-05T20:59:15.955Z,12.15
2018-02-05T21:01:44.363Z,11.75
2018-02-05T21:04:11.925Z,13.23
2018-02-05T21:06:39.522Z,15.65
2018-02-05T21:09:07.099Z,14.10
2018-02-05T21:11:35.458Z,12.60
2018-02-05T21:14:03.042Z,12.90
2018-02-05T21:16:31.506Z,13.60
2018-02-05T21:18:59.075Z,11.85
2018-02-05T21:21:26.679Z,12.60
2018-02-05T21:23:54.303Z,14.30
2018-02-05T21:26:22.778Z,13.25
2018-02-05T21:28:51.190Z,13.85
2018-02-05T21:31:19.034Z,12.85
2018-02-05T21:33:46.661Z,14.35
2018-02-05T21:36:14.242Z,12.70
2018-02-05T21:38:42.575Z,12.25
2018-02-05T21:41:10.242Z,14.23
2018-02-05T21:43:37.814Z,14.65
2018-02-05T21:46:05.418Z,14.23
2018-02-05T21:48:33.023Z,15.25
2018-02-05T21:51:00.712Z,12.45
2018-02-05T21:53:28.234Z,12.85
2018-02-05T21:55:55.866Z,13.15
2018-02-05T21:58:23.447Z,13.60
2018-02-05T22:00:51.030Z,12.32
2018-02-05T22:03:18.648Z,12.52
2018-02-05T22:05:46.238Z,13.15
2018-02-05T22:08:13.834Z,13.25
2018-02-05T22:10:42.170Z,15.32
2018-02-05T22:13:09.850Z,13.48
2018-02-05T22:15:37.417Z,14.57
2018-02-05T22:18:05.050Z,14.45
2018-02-05T22:20:32.656Z,13.82
2018-02-05T22:23:00.999Z,13.95
2018-02-05T22:25:28.663Z,14.00
2018-02-05T22:27:56.231Z,12.13
2018-02-05T22:30:23.838Z,13.50
2018-02-05T22:32:51.416Z,14.73
2018-02-05T22:35:19.022Z,13.35
2018-02-05T22:37:47.350Z,13.98
2018-02-05T22:40:14.966Z,13.55
2018-02-05T22:42:42.634Z,12.65
2018-02-05T22:45:10.190Z,13.57
2018-02-05T22:47:37.790Z,13.13
2018-02-05T22:50:05.354Z,13.62
2018-02-05T22:52:33.010Z,16.08
2018-02-05T22:55:00.575Z,13.43
2018-02-05T22:57:28.142Z,14.18
2018-02-05T22:59:56.106Z,13.93
2018-02-05T23:02:23.682Z,13.55
2018-02-05T23:04:51.398Z,13.70
2018-02-05T23:07:19.537Z,12.98
2018-02-05T23:09:47.885Z,15.45
2018-02-05T23:12:15.453Z,13.10
2018-02-05T23:14:43.146Z,13.50
2018-02-05T23:17:10.703Z,14.73
2018-02-05T23:19:38.262Z,13.68
2018-02-05T23:22:05.914Z,13.93
2018-02-05T23:24:33.502Z,13.45
2018-02-05T23:27:01.125Z,14.93
2018-02-05T23:29:29.450Z,13.57
2018-02-05T23:31:57.046Z,14.70
2018-02-05T23:34:24.620Z,14.18
2018-02-05T23:36:53.083Z,14.93
2018-02-05T23:39:20.647Z,14.93
2018-02-05T23:41:48.979Z,16.10
2018-02-05T23:44:16.587Z,14.25
2018-02-05T23:46:44.913Z,15.75
2018-02-05T23:49:12.502Z,14.85
2018-02-05T23:51:40.090Z,16.25
2018-02-05T23:54:08.631Z,15.57
2018-02-05T23:56:36.364Z,15.75
2018-02-05T23:59:04.614Z,15.02
